sensor_id;sensor_type;location;lat;lon;timestamp;pressure;altitude;pressure_sealevel;temperature
60003;BMP280;46322;52.018;8.702;2023-02-11T00:03:59;101861.69;;;16.13
60003;BMP280;46322;52.018;8.702;2023-02-11T00:08:59;101875.28;;;17.27
60003;BMP280;46322;52.018;8.702;2023-02-11T00:14:01;101866.03;;;15.74
60003;BMP280;46322;52.018;8.702;2023-02-11T00:19:01;101847.06;;;16.83
60003;BMP280;46322;52.018;8.702;2023-02-11T00:24:02;101852.97;;;17.06
60003;BMP280;46322;52.018;8.702;2023-02-11T00:29:02;101865.66;;;16.79
60003;BMP280;46322;52.018;8.702;2023-02-11T00:34:03;101870.34;;;16.91
60003;BMP280;46322;52.018;8.702;2023-02-11T00:39:03;101875.34;;;16.20
60003;BMP280;46322;52.018;8.702;2023-02-11T00:44:03;101857.31;;;16.72
60003;BMP280;46322;52.018;8.702;2023-02-11T00:49:03;101858.69;;;17.34
60003;BMP280;46322;52.018;8.702;2023-02-11T00:54:04;101861.03;;;16.42
60003;BMP280;46322;52.018;8.702;2023-02-11T00:59:04;101878.41;;;16.91
60003;BMP280;46322;52.018;8.702;2023-02-11T01:04:04;101871.59;;;16.12
60003;BMP280;46322;52.018;8.702;2023-02-11T01:09:04;101872.50;;;15.82
60003;BMP280;46322;52.018;8.702;2023-02-11T01:14:04;101877.81;;;15.73
60003;BMP280;46322;52.018;8.702;2023-02-11T01:19:04;101885.56;;;15.83
60003;BMP280;46322;52.018;8.702;2023-02-11T01:24:05;101897.16;;;17.58
60003;BMP280;46322;52.018;8.702;2023-02-11T01:29:05;101883.06;;;16.04
60003;BMP280;46322;52.018;8.702;2023-02-11T01:34:05;101863.19;;;16.74
60003;BMP280;46322;52.018;8.702;2023-02-11T01:39:05;101845.47;;;16.35
60003;BMP280;46322;52.018;8.702;2023-02-11T01:44:28;101844.91;;;16.76
60003;BMP280;46322;52.018;8.702;2023-02-11T01:49:32;101841.34;;;16.03
60003;BMP280;46322;52.018;8.702;2023-02-11T01:54:34;101840.22;;;16.47
60003;BMP280;46322;52.018;8.702;2023-02-11T02:05:02;101836.56;;;15.40
60003;BMP280;46322;52.018;8.702;2023-02-11T02:10:06;101846.91;;;16.79
60003;BMP280;46322;52.018;8.702;2023-02-11T02:15:22;101845.63;;;16.94
60003;BMP280;46322;52.018;8.702;2023-02-11T02:35:49;101803.28;;;15.89
60003;BMP280;46322;52.018;8.702;2023-02-11T02:40:52;101795.25;;;15.72
60003;BMP280;46322;52.018;8.702;2023-02-11T02:45:53;101802.28;;;15.42
60003;BMP280;46322;52.018;8.702;2023-02-11T02:50:57;101802.66;;;15.57
60003;BMP280;46322;52.018;8.702;2023-02-11T02:56:10;101810.84;;;16.04
60003;BMP280;46322;52.018;8.702;2023-02-11T03:01:20;101808.28;;;16.51
60003;BMP280;46322;52.018;8.702;2023-02-11T03:11:26;101806.88;;;15.76
60003;BMP280;46322;52.018;8.702;2023-02-11T03:16:27;101801.97;;;15.35
60003;BMP280;46322;52.018;8.702;2023-02-11T03:21:29;101800.13;;;15.78
60003;BMP280;46322;52.018;8.702;2023-02-11T03:41:37;101768.44;;;16.32
60003;BMP280;46322;52.018;8.702;2023-02-11T03:46:37;101752.63;;;15.41
60003;BMP280;46322;52.018;8.702;2023-02-11T03:51:40;101745.06;;;15.77
60003;BMP280;46322;52.018;8.702;2023-02-11T03:56:43;101754.50;;;16.18
60003;BMP280;46322;52.018;8.702;2023-02-11T04:01:46;101763.50;;;15.70
60003;BMP280;46322;52.018;8.702;2023-02-11T04:06:46;101769.72;;;14.91
60003;BMP280;46322;52.018;8.702;2023-02-11T04:11:46;101768.69;;;15.84
60003;BMP280;46322;52.018;8.702;2023-02-11T04:16:46;101769.75;;;15.48
60003;BMP280;46322;52.018;8.702;2023-02-11T04:21:46;101771.03;;;15.51
60003;BMP280;46322;52.018;8.702;2023-02-11T04:26:46;101774.94;;;15.36
60003;BMP280;46322;52.018;8.702;2023-02-11T04:31:47;101766.75;;;16.27
60003;BMP280;46322;52.018;8.702;2023-02-11T04:36:47;101764.75;;;15.98
60003;BMP280;46322;52.018;8.702;2023-02-11T04:41:47;101766.94;;;15.62
60003;BMP280;46322;52.018;8.702;2023-02-11T04:46:47;101766.78;;;15.93
60003;BMP280;46322;52.018;8.702;2023-02-11T04:51:47;101762.88;;;16.92
60003;BMP280;46322;52.018;8.702;2023-02-11T04:56:47;101770.09;;;15.64
60003;BMP280;46322;52.018;8.702;2023-02-11T05:01:47;101775.53;;;16.37
60003;BMP280;46322;52.018;8.702;2023-02-11T05:06:48;101779.78;;;17.14
60003;BMP280;46322;52.018;8.702;2023-02-11T05:11:48;101783.56;;;16.92
60003;BMP280;46322;52.018;8.702;2023-02-11T05:16:48;101775.56;;;16.19
60003;BMP280;46322;52.018;8.702;2023-02-11T05:21:48;101764.91;;;15.93
60003;BMP280;46322;52.018;8.702;2023-02-11T05:26:48;101765.53;;;15.64
60003;BMP280;46322;52.018;8.702;2023-02-11T05:31:48;101771.66;;;15.82
60003;BMP280;46322;52.018;8.702;2023-02-11T05:36:48;101762.53;;;16.18
60003;BMP280;46322;52.018;8.702;2023-02-11T05:41:49;101758.44;;;15.51
60003;BMP280;46322;52.018;8.702;2023-02-11T05:46:49;101765.16;;;16.26
60003;BMP280;46322;52.018;8.702;2023-02-11T05:51:49;101761.41;;;17.04
60003;BMP280;46322;52.018;8.702;2023-02-11T05:56:49;101768.66;;;15.67
60003;BMP280;46322;52.018;8.702;2023-02-11T06:01:49;101770.56;;;16.01
60003;BMP280;46322;52.018;8.702;2023-02-11T06:06:49;101777.94;;;16.29
60003;BMP280;46322;52.018;8.702;2023-02-11T06:11:49;101758.28;;;15.65
60003;BMP280;46322;52.018;8.702;2023-02-11T06:16:49;101756.59;;;16.97
60003;BMP280;46322;52.018;8.702;2023-02-11T06:21:50;101780.31;;;15.79
60003;BMP280;46322;52.018;8.702;2023-02-11T06:26:50;101778.41;;;16.23
60003;BMP280;46322;52.018;8.702;2023-02-11T06:31:50;101766.28;;;16.81
60003;BMP280;46322;52.018;8.702;2023-02-11T06:36:50;101775.44;;;15.98
60003;BMP280;46322;52.018;8.702;2023-02-11T06:41:50;101789.25;;;17.41
60003;BMP280;46322;52.018;8.702;2023-02-11T06:46:50;101791.25;;;16.47
60003;BMP280;46322;52.018;8.702;2023-02-11T06:51:51;101795.66;;;16.89
60003;BMP280;46322;52.018;8.702;2023-02-11T06:56:51;101802.50;;;16.87
60003;BMP280;46322;52.018;8.702;2023-02-11T07:01:51;101790.59;;;16.58
60003;BMP280;46322;52.018;8.702;2023-02-11T07:06:51;101792.81;;;17.24
60003;BMP280;46322;52.018;8.702;2023-02-11T07:11:51;101801.41;;;16.15
60003;BMP280;46322;52.018;8.702;2023-02-11T07:16:51;101804.47;;;16.98
60003;BMP280;46322;52.018;8.702;2023-02-11T07:21:51;101796.81;;;17.18
60003;BMP280;46322;52.018;8.702;2023-02-11T07:26:52;101805.00;;;17.63
60003;BMP280;46322;52.018;8.702;2023-02-11T07:31:52;101805.47;;;15.78
60003;BMP280;46322;52.018;8.702;2023-02-11T07:36:52;101823.25;;;17.28
60003;BMP280;46322;52.018;8.702;2023-02-11T07:41:52;101823.00;;;17.12
60003;BMP280;46322;52.018;8.702;2023-02-11T07:46:53;101819.28;;;15.54
60003;BMP280;46322;52.018;8.702;2023-02-11T07:51:53;101810.69;;;17.82
60003;BMP280;46322;52.018;8.702;2023-02-11T07:56:53;101805.59;;;17.18
60003;BMP280;46322;52.018;8.702;2023-02-11T08:01:53;101798.84;;;16.45
60003;BMP280;46322;52.018;8.702;2023-02-11T08:06:53;101812.59;;;16.73
60003;BMP280;46322;52.018;8.702;2023-02-11T08:11:53;101817.09;;;16.25
60003;BMP280;46322;52.018;8.702;2023-02-11T08:16:54;101832.56;;;16.84
60003;BMP280;46322;52.018;8.702;2023-02-11T08:21:54;101831.53;;;17.06
60003;BMP280;46322;52.018;8.702;2023-02-11T08:26:55;101830.16;;;16.44
60003;BMP280;46322;52.018;8.702;2023-02-11T08:31:55;101832.66;;;16.58
60003;BMP280;46322;52.018;8.702;2023-02-11T08:36:55;101841.09;;;16.77
60003;BMP280;46322;52.018;8.702;2023-02-11T08:41:55;101842.56;;;16.57
60003;BMP280;46322;52.018;8.702;2023-02-11T08:46:55;101839.94;;;17.54
60003;BMP280;46322;52.018;8.702;2023-02-11T08:51:55;101846.41;;;16.05
60003;BMP280;46322;52.018;8.702;2023-02-11T08:56:56;101858.28;;;17.14
60003;BMP280;46322;52.018;8.702;2023-02-11T09:01:56;101853.66;;;17.32
60003;BMP280;46322;52.018;8.702;2023-02-11T09:06:56;101849.53;;;15.63
60003;BMP280;46322;52.018;8.702;2023-02-11T09:11:56;101860.41;;;16.02
60003;BMP280;46322;52.018;8.702;2023-02-11T09:16:56;101875.63;;;16.70
60003;BMP280;46322;52.018;8.702;2023-02-11T09:21:56;101867.59;;;17.96
60003;BMP280;46322;52.018;8.702;2023-02-11T09:26:57;101879.91;;;16.37
60003;BMP280;46322;52.018;8.702;2023-02-11T09:31:57;101887.66;;;17.40
60003;BMP280;46322;52.018;8.702;2023-02-11T09:36:57;101901.47;;;17.21
60003;BMP280;46322;52.018;8.702;2023-02-11T09:47:02;101907.75;;;17.25
60003;BMP280;46322;52.018;8.702;2023-02-11T09:52:28;101918.88;;;16.98
60003;BMP280;46322;52.018;8.702;2023-02-11T09:57:33;101925.38;;;17.35
60003;BMP280;46322;52.018;8.702;2023-02-11T10:07:50;101919.22;;;18.14
60003;BMP280;46322;52.018;8.702;2023-02-11T10:23:24;101938.94;;;16.92
60003;BMP280;46322;52.018;8.702;2023-02-11T10:28:29;101942.53;;;17.72
60003;BMP280;46322;52.018;8.702;2023-02-11T10:38:30;101963.84;;;17.39
60003;BMP280;46322;52.018;8.702;2023-02-11T10:43:31;101952.25;;;17.85
60003;BMP280;46322;52.018;8.702;2023-02-11T10:48:44;101953.56;;;17.79
60003;BMP280;46322;52.018;8.702;2023-02-11T10:53:46;101955.53;;;17.32
60003;BMP280;46322;52.018;8.702;2023-02-11T10:58:59;101944.81;;;17.53
60003;BMP280;46322;52.018;8.702;2023-02-11T11:04:00;101948.28;;;17.62
60003;BMP280;46322;52.018;8.702;2023-02-11T11:09:00;101942.16;;;17.53
60003;BMP280;46322;52.018;8.702;2023-02-11T11:14:00;101945.88;;;17.90
60003;BMP280;46322;52.018;8.702;2023-02-11T11:24:13;101944.84;;;17.15
60003;BMP280;46322;52.018;8.702;2023-02-11T11:29:16;101934.84;;;18.33
60003;BMP280;46322;52.018;8.702;2023-02-11T11:34:59;101950.25;;;18.90
60003;BMP280;46322;52.018;8.702;2023-02-11T11:39:40;101954.44;;;17.92
60003;BMP280;46322;52.018;8.702;2023-02-11T11:44:40;101946.47;;;17.45
60003;BMP280;46322;52.018;8.702;2023-02-11T11:54:49;101947.13;;;17.92
60003;BMP280;46322;52.018;8.702;2023-02-11T11:59:51;101946.47;;;18.58
60003;BMP280;46322;52.018;8.702;2023-02-11T12:20:35;101938.44;;;17.75
60003;BMP280;46322;52.018;8.702;2023-02-11T12:25:40;101929.66;;;18.07
60003;BMP280;46322;52.018;8.702;2023-02-11T12:30:51;101934.47;;;17.51
60003;BMP280;46322;52.018;8.702;2023-02-11T12:46:36;101927.13;;;17.31
60003;BMP280;46322;52.018;8.702;2023-02-11T13:01:47;101933.75;;;18.67
60003;BMP280;46322;52.018;8.702;2023-02-11T13:06:50;101933.00;;;19.15
60003;BMP280;46322;52.018;8.702;2023-02-11T13:11:53;101934.69;;;17.67
60003;BMP280;46322;52.018;8.702;2023-02-11T13:16:56;101938.59;;;18.86
60003;BMP280;46322;52.018;8.702;2023-02-11T13:22:04;101931.38;;;18.78
60003;BMP280;46322;52.018;8.702;2023-02-11T13:27:08;101933.94;;;18.62
60003;BMP280;46322;52.018;8.702;2023-02-11T13:37:25;101927.34;;;18.72
60003;BMP280;46322;52.018;8.702;2023-02-11T13:42:26;101927.25;;;19.78
60003;BMP280;46322;52.018;8.702;2023-02-11T13:52:29;101929.75;;;19.10
60003;BMP280;46322;52.018;8.702;2023-02-11T13:57:32;101933.19;;;19.71
60003;BMP280;46322;52.018;8.702;2023-02-11T14:02:33;101934.69;;;18.95
60003;BMP280;46322;52.018;8.702;2023-02-11T14:07:33;101926.50;;;18.47
60003;BMP280;46322;52.018;8.702;2023-02-11T14:12:33;101914.97;;;18.46
60003;BMP280;46322;52.018;8.702;2023-02-11T14:17:34;101925.53;;;19.21
60003;BMP280;46322;52.018;8.702;2023-02-11T14:22:42;101917.28;;;20.06
60003;BMP280;46322;52.018;8.702;2023-02-11T14:27:47;101922.16;;;20.44
60003;BMP280;46322;52.018;8.702;2023-02-11T14:43:16;101921.34;;;19.48
60003;BMP280;46322;52.018;8.702;2023-02-11T14:48:19;101931.63;;;20.10
60003;BMP280;46322;52.018;8.702;2023-02-11T14:53:23;101945.66;;;19.15
60003;BMP280;46322;52.018;8.702;2023-02-11T14:58:24;101945.97;;;20.58
60003;BMP280;46322;52.018;8.702;2023-02-11T15:08:25;101965.56;;;20.27
60003;BMP280;46322;52.018;8.702;2023-02-11T15:13:26;101962.81;;;19.34
60003;BMP280;46322;52.018;8.702;2023-02-11T15:18:31;101972.69;;;20.35
60003;BMP280;46322;52.018;8.702;2023-02-11T15:23:32;101971.06;;;20.46
60003;BMP280;46322;52.018;8.702;2023-02-11T15:28:33;101970.34;;;20.05
60003;BMP280;46322;52.018;8.702;2023-02-11T15:33:33;101984.25;;;19.43
60003;BMP280;46322;52.018;8.702;2023-02-11T15:38:33;101989.31;;;20.81
60003;BMP280;46322;52.018;8.702;2023-02-11T15:48:43;101998.94;;;20.10
60003;BMP280;46322;52.018;8.702;2023-02-11T15:53:46;101994.53;;;20.18
60003;BMP280;46322;52.018;8.702;2023-02-11T15:58:46;101998.69;;;19.26
60003;BMP280;46322;52.018;8.702;2023-02-11T16:03:48;101994.75;;;20.53
60003;BMP280;46322;52.018;8.702;2023-02-11T16:08:59;101990.69;;;19.06
60003;BMP280;46322;52.018;8.702;2023-02-11T16:14:00;101988.81;;;19.79
60003;BMP280;46322;52.018;8.702;2023-02-11T16:19:01;101995.22;;;19.62
60003;BMP280;46322;52.018;8.702;2023-02-11T16:24:01;101997.53;;;19.88
60003;BMP280;46322;52.018;8.702;2023-02-11T16:29:15;102008.81;;;18.43
60003;BMP280;46322;52.018;8.702;2023-02-11T16:34:17;102025.91;;;19.86
60003;BMP280;46322;52.018;8.702;2023-02-11T16:39:19;102022.63;;;20.04
60003;BMP280;46322;52.018;8.702;2023-02-11T16:44:19;102022.19;;;19.29
60003;BMP280;46322;52.018;8.702;2023-02-11T16:49:23;102029.97;;;18.86
60003;BMP280;46322;52.018;8.702;2023-02-11T16:54:24;102031.34;;;19.04
60003;BMP280;46322;52.018;8.702;2023-02-11T16:59:25;102028.50;;;18.55
60003;BMP280;46322;52.018;8.702;2023-02-11T17:04:26;102039.59;;;18.66
60003;BMP280;46322;52.018;8.702;2023-02-11T17:09:27;102038.22;;;18.60
60003;BMP280;46322;52.018;8.702;2023-02-11T17:14:27;102030.69;;;20.04
60003;BMP280;46322;52.018;8.702;2023-02-11T17:19:27;102027.63;;;18.43
60003;BMP280;46322;52.018;8.702;2023-02-11T17:24:27;102038.13;;;18.56
60003;BMP280;46322;52.018;8.702;2023-02-11T17:29:27;102046.00;;;18.94
60003;BMP280;46322;52.018;8.702;2023-02-11T17:34:28;102042.75;;;19.01
60003;BMP280;46322;52.018;8.702;2023-02-11T17:39:28;102044.63;;;18.88
60003;BMP280;46322;52.018;8.702;2023-02-11T17:44:28;102048.47;;;19.57
60003;BMP280;46322;52.018;8.702;2023-02-11T17:49:28;102069.16;;;18.45
60003;BMP280;46322;52.018;8.702;2023-02-11T17:54:28;102067.94;;;18.13
60003;BMP280;46322;52.018;8.702;2023-02-11T17:59:28;102058.47;;;19.11
60003;BMP280;46322;52.018;8.702;2023-02-11T18:04:29;102068.06;;;18.67
60003;BMP280;46322;52.018;8.702;2023-02-11T18:09:29;102072.63;;;17.95
60003;BMP280;46322;52.018;8.702;2023-02-11T18:14:29;102090.88;;;18.61
60003;BMP280;46322;52.018;8.702;2023-02-11T18:19:29;102106.13;;;18.90
60003;BMP280;46322;52.018;8.702;2023-02-11T18:24:30;102103.50;;;19.14
60003;BMP280;46322;52.018;8.702;2023-02-11T18:29:30;102107.44;;;19.17
60003;BMP280;46322;52.018;8.702;2023-02-11T18:34:30;102106.28;;;19.39
60003;BMP280;46322;52.018;8.702;2023-02-11T18:39:30;102097.44;;;18.43
60003;BMP280;46322;52.018;8.702;2023-02-11T18:44:30;102100.91;;;19.51
60003;BMP280;46322;52.018;8.702;2023-02-11T18:49:30;102118.94;;;18.72
60003;BMP280;46322;52.018;8.702;2023-02-11T18:54:31;102122.34;;;17.93
60003;BMP280;46322;52.018;8.702;2023-02-11T18:59:31;102117.22;;;19.79
60003;BMP280;46322;52.018;8.702;2023-02-11T19:04:31;102130.94;;;18.07
60003;BMP280;46322;52.018;8.702;2023-02-11T19:09:31;102134.81;;;20.13
60003;BMP280;46322;52.018;8.702;2023-02-11T19:14:31;102140.31;;;19.80
60003;BMP280;46322;52.018;8.702;2023-02-11T19:19:32;102149.28;;;19.06
60003;BMP280;46322;52.018;8.702;2023-02-11T19:24:33;102142.81;;;19.40
60003;BMP280;46322;52.018;8.702;2023-02-11T19:29:33;102154.81;;;18.88
60003;BMP280;46322;52.018;8.702;2023-02-11T19:34:33;102169.03;;;18.89
60003;BMP280;46322;52.018;8.702;2023-02-11T19:39:35;102168.44;;;19.70
60003;BMP280;46322;52.018;8.702;2023-02-11T19:44:36;102164.88;;;19.45
60003;BMP280;46322;52.018;8.702;2023-02-11T19:49:36;102171.63;;;19.18
60003;BMP280;46322;52.018;8.702;2023-02-11T19:54:36;102173.47;;;19.06
60003;BMP280;46322;52.018;8.702;2023-02-11T19:59:36;102179.56;;;19.93
60003;BMP280;46322;52.018;8.702;2023-02-11T20:04:36;102175.94;;;18.98
60003;BMP280;46322;52.018;8.702;2023-02-11T20:09:37;102186.22;;;19.17
60003;BMP280;46322;52.018;8.702;2023-02-11T20:14:37;102172.78;;;18.17
60003;BMP280;46322;52.018;8.702;2023-02-11T20:19:37;102178.13;;;18.55
60003;BMP280;46322;52.018;8.702;2023-02-11T20:24:37;102183.00;;;19.03
60003;BMP280;46322;52.018;8.702;2023-02-11T20:29:37;102183.25;;;18.01
60003;BMP280;46322;52.018;8.702;2023-02-11T20:34:38;102191.69;;;19.99
60003;BMP280;46322;52.018;8.702;2023-02-11T20:39:38;102194.75;;;19.64
60003;BMP280;46322;52.018;8.702;2023-02-11T20:44:38;102189.53;;;18.73
60003;BMP280;46322;52.018;8.702;2023-02-11T20:49:38;102191.94;;;20.18
60003;BMP280;46322;52.018;8.702;2023-02-11T20:54:38;102203.41;;;19.58
60003;BMP280;46322;52.018;8.702;2023-02-11T20:59:38;102204.03;;;18.80
60003;BMP280;46322;52.018;8.702;2023-02-11T21:04:39;102207.25;;;18.94
60003;BMP280;46322;52.018;8.702;2023-02-11T21:09:39;102214.84;;;19.67
60003;BMP280;46322;52.018;8.702;2023-02-11T21:14:39;102212.47;;;19.32
60003;BMP280;46322;52.018;8.702;2023-02-11T21:19:39;102217.56;;;18.63
60003;BMP280;46322;52.018;8.702;2023-02-11T21:24:39;102214.81;;;19.22
60003;BMP280;46322;52.018;8.702;2023-02-11T21:29:39;102215.66;;;18.72
60003;BMP280;46322;52.018;8.702;2023-02-11T21:34:39;102228.63;;;19.32
60003;BMP280;46322;52.018;8.702;2023-02-11T21:39:40;102227.00;;;18.40
60003;BMP280;46322;52.018;8.702;2023-02-11T21:44:40;102233.84;;;18.37
60003;BMP280;46322;52.018;8.702;2023-02-11T21:49:40;102233.22;;;17.42
60003;BMP280;46322;52.018;8.702;2023-02-11T21:54:40;102250.56;;;19.55
60003;BMP280;46322;52.018;8.702;2023-02-11T21:59:40;102258.72;;;19.05
60003;BMP280;46322;52.018;8.702;2023-02-11T22:04:40;102273.31;;;19.04
60003;BMP280;46322;52.018;8.702;2023-02-11T22:09:41;102265.84;;;19.63
60003;BMP280;46322;52.018;8.702;2023-02-11T22:14:41;102265.28;;;18.95
60003;BMP280;46322;52.018;8.702;2023-02-11T22:19:41;102262.47;;;19.54
60003;BMP280;46322;52.018;8.702;2023-02-11T22:24:41;102271.47;;;18.87
60003;BMP280;46322;52.018;8.702;2023-02-11T22:29:41;102271.75;;;18.27
60003;BMP280;46322;52.018;8.702;2023-02-11T22:34:42;102275.91;;;18.62
60003;BMP280;46322;52.018;8.702;2023-02-11T22:39:42;102283.69;;;18.85
60003;BMP280;46322;52.018;8.702;2023-02-11T22:44:42;102291.41;;;18.86
60003;BMP280;46322;52.018;8.702;2023-02-11T22:49:42;102304.09;;;18.77
60003;BMP280;46322;52.018;8.702;2023-02-11T22:54:42;102302.47;;;20.58
60003;BMP280;46322;52.018;8.702;2023-02-11T22:59:42;102298.22;;;19.88
60003;BMP280;46322;52.018;8.702;2023-02-11T23:04:42;102305.41;;;19.63
60003;BMP280;46322;52.018;8.702;2023-02-11T23:09:43;102310.91;;;19.87
60003;BMP280;46322;52.018;8.702;2023-02-11T23:14:43;102318.44;;;19.40
60003;BMP280;46322;52.018;8.702;2023-02-11T23:19:43;102318.34;;;19.28
60003;BMP280;46322;52.018;8.702;2023-02-11T23:24:43;102311.47;;;18.89
60003;BMP280;46322;52.018;8.702;2023-02-11T23:29:44;102327.03;;;19.33
60003;BMP280;46322;52.018;8.702;2023-02-11T23:34:44;102321.34;;;19.06
60003;BMP280;46322;52.018;8.702;2023-02-11T23:39:44;102327.50;;;19.06
60003;BMP280;46322;52.018;8.702;2023-02-11T23:44:45;102319.94;;;19.29
60003;BMP280;46322;52.018;8.702;2023-02-11T23:49:46;102322.38;;;19.43
60003;BMP280;46322;52.018;8.702;2023-02-11T23:54:46;102318.63;;;18.85
60003;BMP280;46322;52.018;8.702;2023-02-11T23:59:49;102320.00;;;20.40
